GHOYT EGGD-EGNS
Flight info
| Callsign | GHOYT |
|---|---|
| Flight time | 0h 44m |
| Altitude | 22000 |
| Route | BCN P69 EXBUM/N0481F240 P69 DIZIM N864 WAL M146 LUSOD DCT IOM |
| Aircraft | C750/M-SBDE3FGHRWXY/S |
Departure
| Time | 2026-04-26 19:16 |
|---|---|
| Airport | Bristol Airport (EGGD) |
Arrival
| Time | 2026-04-26 20:00 |
|---|---|
| Airport | Isle of Man Airport (EGNS) |
| Time | Latitude | Longitude | Altitude | Speed | Heading |
|---|---|---|---|---|---|
| 2026-04-26 18:43 | 51.38495 | -2.72242 | 611 ft | 0 kts | 357° |
| 2026-04-26 19:06 | 51.38490 | -2.72241 | 611 ft | 2 kts | 356° |
| 2026-04-26 19:07 | 51.38474 | -2.72240 | 620 ft | 2 kts | 356° |
| 2026-04-26 19:07 | 51.38458 | -2.72238 | 611 ft | 2 kts | 347° |
| 2026-04-26 19:07 | 51.38443 | -2.72225 | 621 ft | 2 kts | 319° |
| 2026-04-26 19:07 | 51.38433 | -2.72206 | 625 ft | 2 kts | 294° |
| 2026-04-26 19:08 | 51.38427 | -2.72181 | 615 ft | 2 kts | 282° |
| 2026-04-26 19:08 | 51.38425 | -2.72165 | 612 ft | 0 kts | 272° |
| 2026-04-26 19:11 | 51.38423 | -2.72222 | 611 ft | 16 kts | 266° |
| 2026-04-26 19:11 | 51.38411 | -2.72526 | 612 ft | 41 kts | 266° |
| 2026-04-26 19:11 | 51.38395 | -2.72932 | 617 ft | 19 kts | 266° |
| 2026-04-26 19:11 | 51.38388 | -2.73136 | 612 ft | 10 kts | 266° |
| 2026-04-26 19:12 | 51.38387 | -2.73161 | 612 ft | 0 kts | 266° |
| 2026-04-26 19:13 | 51.38387 | -2.73165 | 612 ft | 0 kts | 266° |
| 2026-04-26 19:14 | 51.38385 | -2.73204 | 613 ft | 12 kts | 267° |
| 2026-04-26 19:14 | 51.38367 | -2.73296 | 613 ft | 13 kts | 233° |
| 2026-04-26 19:15 | 51.38259 | -2.73333 | 613 ft | 12 kts | 162° |
| 2026-04-26 19:15 | 51.38218 | -2.73248 | 619 ft | 9 kts | 99° |
| 2026-04-26 19:15 | 51.38218 | -2.73145 | 612 ft | 9 kts | 83° |
| 2026-04-26 19:15 | 51.38226 | -2.72967 | 609 ft | 41 kts | 86° |
| 2026-04-26 19:16 | 51.38269 | -2.71891 | 629 ft | 139 kts | 88° |
| 2026-04-26 19:16 | 51.38287 | -2.70340 | 1299 ft | 137 kts | 93° |
| 2026-04-26 19:16 | 51.38207 | -2.68810 | 2093 ft | 140 kts | 98° |
| 2026-04-26 19:16 | 51.38055 | -2.67273 | 2839 ft | 142 kts | 93° |
| 2026-04-26 19:17 | 51.38164 | -2.65706 | 3606 ft | 141 kts | 82° |
| 2026-04-26 19:17 | 51.38282 | -2.64149 | 4357 ft | 143 kts | 83° |
| 2026-04-26 19:17 | 51.38401 | -2.62557 | 5091 ft | 145 kts | 83° |
| 2026-04-26 19:17 | 51.38522 | -2.60975 | 5747 ft | 135 kts | 83° |
| 2026-04-26 19:18 | 51.38640 | -2.59392 | 6151 ft | 154 kts | 83° |
| 2026-04-26 19:18 | 51.38772 | -2.57630 | 6055 ft | 162 kts | 82° |
| 2026-04-26 19:18 | 51.39197 | -2.55993 | 5973 ft | 155 kts | 55° |
| 2026-04-26 19:18 | 51.39958 | -2.54823 | 5983 ft | 151 kts | 33° |
| 2026-04-26 19:19 | 51.40934 | -2.54242 | 5986 ft | 151 kts | 9° |
| 2026-04-26 19:19 | 51.41987 | -2.54177 | 5993 ft | 153 kts | 356° |
| 2026-04-26 19:19 | 51.43034 | -2.54383 | 5992 ft | 154 kts | 346° |
| 2026-04-26 19:19 | 51.43918 | -2.55336 | 6003 ft | 153 kts | 316° |
| 2026-04-26 19:20 | 51.44544 | -2.56740 | 6002 ft | 156 kts | 301° |
| 2026-04-26 19:20 | 51.44933 | -2.57737 | 6011 ft | 157 kts | 303° |
| 2026-04-26 19:20 | 51.45743 | -2.59721 | 6834 ft | 152 kts | 303° |
| 2026-04-26 19:20 | 51.46317 | -2.61129 | 7611 ft | 153 kts | 302° |
| 2026-04-26 19:21 | 51.46907 | -2.62572 | 8351 ft | 155 kts | 302° |
| 2026-04-26 19:21 | 51.47499 | -2.64018 | 9134 ft | 156 kts | 301° |
| 2026-04-26 19:21 | 51.48097 | -2.65486 | 9889 ft | 157 kts | 301° |
| 2026-04-26 19:21 | 51.48696 | -2.66965 | 10569 ft | 159 kts | 300° |
| 2026-04-26 19:22 | 51.49304 | -2.68460 | 11205 ft | 161 kts | 300° |
| 2026-04-26 19:22 | 51.49923 | -2.69981 | 11889 ft | 163 kts | 299° |
| 2026-04-26 19:22 | 51.50546 | -2.71516 | 12576 ft | 166 kts | 298° |
| 2026-04-26 19:22 | 51.51177 | -2.73071 | 13294 ft | 167 kts | 298° |
| 2026-04-26 19:23 | 51.51813 | -2.74637 | 14008 ft | 168 kts | 297° |
| 2026-04-26 19:23 | 51.52455 | -2.76221 | 14649 ft | 169 kts | 298° |
| 2026-04-26 19:23 | 51.53100 | -2.77812 | 15261 ft | 173 kts | 298° |
| 2026-04-26 19:23 | 51.53796 | -2.79548 | 15405 ft | 197 kts | 298° |
| 2026-04-26 19:24 | 51.54575 | -2.81475 | 15302 ft | 212 kts | 299° |
| 2026-04-26 19:24 | 51.55419 | -2.83563 | 15291 ft | 243 kts | 299° |
| 2026-04-26 19:24 | 51.57523 | -2.88765 | 15486 ft | 306 kts | 300° |
| 2026-04-26 19:25 | 51.58728 | -2.91754 | 15646 ft | 331 kts | 300° |
| 2026-04-26 19:25 | 51.59157 | -2.92820 | 15673 ft | 340 kts | 300° |
| 2026-04-26 19:25 | 51.61401 | -2.98402 | 16063 ft | 368 kts | 300° |
| 2026-04-26 19:25 | 51.62798 | -3.01866 | 16803 ft | 370 kts | 300° |
| 2026-04-26 19:26 | 51.64200 | -3.05362 | 17447 ft | 374 kts | 300° |
| 2026-04-26 19:26 | 51.65616 | -3.08909 | 18122 ft | 379 kts | 300° |
| 2026-04-26 19:26 | 51.67048 | -3.12498 | 18784 ft | 383 kts | 300° |
| 2026-04-26 19:26 | 51.68507 | -3.16139 | 19415 ft | 387 kts | 300° |
| 2026-04-26 19:27 | 51.70230 | -3.19521 | 19991 ft | 396 kts | 314° |
| 2026-04-26 19:27 | 51.72454 | -3.22189 | 20669 ft | 404 kts | 327° |
| 2026-04-26 19:27 | 51.75067 | -3.23973 | 21311 ft | 413 kts | 341° |
| 2026-04-26 19:27 | 51.77933 | -3.24687 | 21941 ft | 419 kts | 355° |
| 2026-04-26 19:28 | 51.80834 | -3.24318 | 22271 ft | 424 kts | 6° |
| 2026-04-26 19:28 | 51.83798 | -3.23578 | 22278 ft | 435 kts | 7° |
| 2026-04-26 19:28 | 51.86789 | -3.22784 | 22279 ft | 436 kts | 7° |
| 2026-04-26 19:28 | 51.89778 | -3.22043 | 22278 ft | 431 kts | 6° |
| 2026-04-26 19:29 | 51.91743 | -3.21578 | 22280 ft | 431 kts | 6° |
| 2026-04-26 19:29 | 51.94709 | -3.20864 | 22281 ft | 431 kts | 6° |
| 2026-04-26 19:29 | 51.97659 | -3.20120 | 22273 ft | 427 kts | 7° |
| 2026-04-26 19:29 | 52.01602 | -3.19128 | 22284 ft | 435 kts | 6° |
| 2026-04-26 19:30 | 52.04553 | -3.18479 | 22293 ft | 423 kts | 2° |
| 2026-04-26 19:30 | 52.07501 | -3.18250 | 22301 ft | 423 kts | 360° |
| 2026-04-26 19:30 | 52.09499 | -3.18122 | 22294 ft | 427 kts | 360° |
| 2026-04-26 19:30 | 52.11468 | -3.17984 | 22289 ft | 428 kts | 0° |
| 2026-04-26 19:31 | 52.15404 | -3.17663 | 22289 ft | 428 kts | 0° |
| 2026-04-26 19:31 | 52.18383 | -3.17426 | 22287 ft | 427 kts | 0° |
| 2026-04-26 19:31 | 52.21343 | -3.17206 | 22287 ft | 426 kts | 0° |
| 2026-04-26 19:31 | 52.24298 | -3.16986 | 22293 ft | 423 kts | 0° |
| 2026-04-26 19:32 | 52.27258 | -3.16755 | 22281 ft | 426 kts | 0° |
| 2026-04-26 19:32 | 52.30227 | -3.16522 | 22283 ft | 428 kts | 0° |
| 2026-04-26 19:32 | 52.33231 | -3.16293 | 22285 ft | 440 kts | 0° |
| 2026-04-26 19:32 | 52.36356 | -3.16065 | 22368 ft | 455 kts | 0° |
| 2026-04-26 19:33 | 52.39504 | -3.15814 | 23179 ft | 452 kts | 0° |
| 2026-04-26 19:33 | 52.42664 | -3.15556 | 23674 ft | 457 kts | 0° |
| 2026-04-26 19:33 | 52.45847 | -3.15308 | 24140 ft | 456 kts | 0° |
| 2026-04-26 19:33 | 52.49047 | -3.15064 | 24283 ft | 464 kts | 0° |
| 2026-04-26 19:34 | 52.52280 | -3.14813 | 24282 ft | 463 kts | 0° |
| 2026-04-26 19:34 | 52.55520 | -3.14555 | 24279 ft | 465 kts | 0° |
| 2026-04-26 19:34 | 52.58740 | -3.14300 | 24276 ft | 466 kts | 0° |
| 2026-04-26 19:34 | 52.61932 | -3.14053 | 24272 ft | 464 kts | 0° |
| 2026-04-26 19:35 | 52.65138 | -3.13802 | 24272 ft | 460 kts | 0° |
| 2026-04-26 19:35 | 52.68322 | -3.13689 | 24262 ft | 456 kts | 355° |
| 2026-04-26 19:35 | 52.71476 | -3.14376 | 24269 ft | 460 kts | 346° |
| 2026-04-26 19:35 | 52.74531 | -3.15886 | 24267 ft | 456 kts | 336° |
| 2026-04-26 19:36 | 52.77374 | -3.18121 | 24279 ft | 452 kts | 329° |
| 2026-04-26 19:36 | 52.79202 | -3.19732 | 24284 ft | 449 kts | 329° |
| 2026-04-26 19:36 | 52.82910 | -3.22958 | 24292 ft | 452 kts | 329° |
| 2026-04-26 19:36 | 52.85702 | -3.25380 | 24290 ft | 452 kts | 330° |
| 2026-04-26 19:37 | 52.88606 | -3.27426 | 24270 ft | 457 kts | 339° |
| 2026-04-26 19:37 | 52.91679 | -3.28681 | 24271 ft | 456 kts | 348° |
| 2026-04-26 19:37 | 52.94850 | -3.29133 | 24273 ft | 460 kts | 357° |
| 2026-04-26 19:37 | 52.98062 | -3.28748 | 24277 ft | 464 kts | 6° |
| 2026-04-26 19:38 | 53.01227 | -3.27649 | 24287 ft | 466 kts | 11° |
| 2026-04-26 19:38 | 53.04389 | -3.26470 | 24295 ft | 465 kts | 10° |
| 2026-04-26 19:38 | 53.07555 | -3.25311 | 24289 ft | 468 kts | 10° |
| 2026-04-26 19:38 | 53.10731 | -3.24134 | 24287 ft | 466 kts | 10° |
| 2026-04-26 19:39 | 53.13894 | -3.22943 | 24287 ft | 465 kts | 10° |
| 2026-04-26 19:39 | 53.17050 | -3.21760 | 24283 ft | 464 kts | 10° |
| 2026-04-26 19:39 | 53.20205 | -3.20586 | 24281 ft | 465 kts | 10° |
| 2026-04-26 19:39 | 53.23373 | -3.19405 | 24280 ft | 467 kts | 11° |
| 2026-04-26 19:40 | 53.26552 | -3.18209 | 24278 ft | 468 kts | 11° |
| 2026-04-26 19:40 | 53.29700 | -3.17117 | 24264 ft | 470 kts | 7° |
| 2026-04-26 19:40 | 53.32956 | -3.16790 | 24254 ft | 465 kts | 356° |
| 2026-04-26 19:40 | 53.36138 | -3.17307 | 24258 ft | 456 kts | 347° |
| 2026-04-26 19:41 | 53.39186 | -3.18618 | 24263 ft | 450 kts | 339° |
| 2026-04-26 19:41 | 53.42077 | -3.20696 | 24265 ft | 451 kts | 330° |
| 2026-04-26 19:41 | 53.44733 | -3.23480 | 24273 ft | 449 kts | 321° |
| 2026-04-26 19:41 | 53.46372 | -3.25737 | 24273 ft | 453 kts | 315° |
| 2026-04-26 19:42 | 53.49361 | -3.30798 | 24294 ft | 467 kts | 311° |
| 2026-04-26 19:42 | 53.51659 | -3.34721 | 24290 ft | 472 kts | 312° |
| 2026-04-26 19:42 | 53.53967 | -3.38646 | 24290 ft | 472 kts | 312° |
| 2026-04-26 19:42 | 53.56263 | -3.42593 | 24291 ft | 471 kts | 311° |
| 2026-04-26 19:43 | 53.58545 | -3.46541 | 24185 ft | 473 kts | 311° |
| 2026-04-26 19:43 | 53.60844 | -3.50508 | 23975 ft | 472 kts | 311° |
| 2026-04-26 19:43 | 53.63135 | -3.54450 | 23747 ft | 471 kts | 312° |
| 2026-04-26 19:43 | 53.65413 | -3.58385 | 23496 ft | 468 kts | 312° |
| 2026-04-26 19:44 | 53.67676 | -3.62312 | 23117 ft | 464 kts | 312° |
| 2026-04-26 19:44 | 53.69921 | -3.66119 | 22611 ft | 463 kts | 316° |
| 2026-04-26 19:44 | 53.72149 | -3.69998 | 22082 ft | 460 kts | 309° |
| 2026-04-26 19:44 | 53.74087 | -3.74342 | 21582 ft | 464 kts | 304° |
| 2026-04-26 19:45 | 53.75879 | -3.78853 | 21105 ft | 461 kts | 303° |
| 2026-04-26 19:45 | 53.77596 | -3.83397 | 20631 ft | 458 kts | 302° |
| 2026-04-26 19:45 | 53.79274 | -3.87949 | 20165 ft | 452 kts | 302° |
| 2026-04-26 19:45 | 53.80911 | -3.92459 | 19704 ft | 447 kts | 302° |
| 2026-04-26 19:46 | 53.82517 | -3.96931 | 19246 ft | 444 kts | 301° |
| 2026-04-26 19:46 | 53.84111 | -4.01416 | 18794 ft | 445 kts | 301° |
| 2026-04-26 19:46 | 53.85687 | -4.05893 | 18314 ft | 432 kts | 301° |
| 2026-04-26 19:46 | 53.87194 | -4.10204 | 17793 ft | 426 kts | 301° |
| 2026-04-26 19:47 | 53.88710 | -4.14536 | 17182 ft | 425 kts | 301° |
| 2026-04-26 19:47 | 53.89705 | -4.17373 | 16787 ft | 422 kts | 301° |
| 2026-04-26 19:47 | 53.91703 | -4.23034 | 16003 ft | 415 kts | 301° |
| 2026-04-26 19:47 | 53.93184 | -4.27203 | 15438 ft | 410 kts | 301° |
| 2026-04-26 19:48 | 53.94665 | -4.31339 | 14787 ft | 411 kts | 301° |
| 2026-04-26 19:48 | 53.96151 | -4.35465 | 14041 ft | 404 kts | 301° |
| 2026-04-26 19:48 | 53.97585 | -4.39435 | 13229 ft | 399 kts | 301° |
| 2026-04-26 19:48 | 53.99038 | -4.43431 | 12425 ft | 396 kts | 301° |
| 2026-04-26 19:49 | 54.00473 | -4.47358 | 11640 ft | 385 kts | 301° |
| 2026-04-26 19:49 | 54.01878 | -4.51175 | 10874 ft | 379 kts | 301° |
| 2026-04-26 19:49 | 54.03022 | -4.55201 | 10264 ft | 378 kts | 283° |
| 2026-04-26 19:49 | 54.03253 | -4.59527 | 10286 ft | 364 kts | 269° |
| 2026-04-26 19:50 | 54.02955 | -4.63847 | 10253 ft | 373 kts | 253° |
| 2026-04-26 19:50 | 54.01705 | -4.67649 | 9889 ft | 369 kts | 231° |
| 2026-04-26 19:50 | 53.99633 | -4.70228 | 9219 ft | 373 kts | 205° |
| 2026-04-26 19:50 | 53.97141 | -4.71132 | 8254 ft | 369 kts | 183° |
| 2026-04-26 19:51 | 53.94693 | -4.70245 | 7104 ft | 330 kts | 158° |
| 2026-04-26 19:51 | 53.92956 | -4.68161 | 5085 ft | 294 kts | 131° |
| 2026-04-26 19:51 | 53.92146 | -4.65141 | 3312 ft | 279 kts | 96° |
| 2026-04-26 19:51 | 53.92519 | -4.61916 | 2424 ft | 293 kts | 63° |
| 2026-04-26 19:52 | 53.93532 | -4.59233 | 2313 ft | 245 kts | 53° |
| 2026-04-26 19:52 | 53.94561 | -4.56986 | 2276 ft | 241 kts | 44° |
| 2026-04-26 19:52 | 53.95886 | -4.55179 | 2162 ft | 259 kts | 32° |
| 2026-04-26 19:52 | 53.97481 | -4.53572 | 2046 ft | 266 kts | 25° |
| 2026-04-26 19:53 | 53.99193 | -4.52482 | 1997 ft | 264 kts | 18° |
| 2026-04-26 19:53 | 54.00931 | -4.51451 | 1997 ft | 262 kts | 18° |
| 2026-04-26 19:53 | 54.02642 | -4.50424 | 1993 ft | 259 kts | 18° |
| 2026-04-26 19:53 | 54.04341 | -4.49402 | 1984 ft | 259 kts | 18° |
| 2026-04-26 19:54 | 54.06039 | -4.48381 | 1989 ft | 258 kts | 18° |
| 2026-04-26 19:54 | 54.07585 | -4.47469 | 1722 ft | 216 kts | 14° |
| 2026-04-26 19:54 | 54.09112 | -4.47471 | 1480 ft | 223 kts | 344° |
| 2026-04-26 19:54 | 54.10205 | -4.49305 | 1334 ft | 236 kts | 283° |
| 2026-04-26 19:55 | 54.09815 | -4.51995 | 948 ft | 250 kts | 242° |
| 2026-04-26 19:55 | 54.09021 | -4.54546 | 840 ft | 232 kts | 244° |
| 2026-04-26 19:55 | 54.08735 | -4.56982 | 649 ft | 181 kts | 274° |
| 2026-04-26 19:55 | 54.08716 | -4.58874 | 291 ft | 149 kts | 262° |
| 2026-04-26 19:56 | 54.08555 | -4.60536 | 100 ft | 135 kts | 258° |
| 2026-04-26 19:56 | 54.08375 | -4.62014 | 27 ft | 121 kts | 258° |
| 2026-04-26 19:56 | 54.08204 | -4.63374 | 40 ft | 111 kts | 258° |
| 2026-04-26 19:56 | 54.08046 | -4.64794 | 390 ft | 139 kts | 259° |
| 2026-04-26 19:57 | 54.07622 | -4.66500 | 679 ft | 175 kts | 228° |
| 2026-04-26 19:57 | 54.06437 | -4.66723 | 1094 ft | 201 kts | 153° |
| 2026-04-26 19:57 | 54.05674 | -4.64763 | 1404 ft | 198 kts | 98° |
| 2026-04-26 19:57 | 54.05957 | -4.62473 | 1372 ft | 200 kts | 69° |
| 2026-04-26 19:58 | 54.06419 | -4.60328 | 1434 ft | 183 kts | 69° |
| 2026-04-26 19:58 | 54.06826 | -4.58354 | 1620 ft | 171 kts | 70° |
| 2026-04-26 19:58 | 54.07189 | -4.56465 | 1724 ft | 170 kts | 71° |
| 2026-04-26 19:58 | 54.07665 | -4.54618 | 1742 ft | 170 kts | 50° |
| 2026-04-26 19:59 | 54.08671 | -4.53949 | 1682 ft | 159 kts | 346° |
| 2026-04-26 19:59 | 54.09181 | -4.55420 | 1411 ft | 164 kts | 264° |
| 2026-04-26 19:59 | 54.08951 | -4.57205 | 872 ft | 149 kts | 259° |
| 2026-04-26 19:59 | 54.08768 | -4.58850 | 399 ft | 134 kts | 257° |
| 2026-04-26 20:00 | 54.08572 | -4.60451 | 158 ft | 144 kts | 257° |
| 2026-04-26 20:00 | 54.08374 | -4.62032 | 28 ft | 128 kts | 257° |
| 2026-04-26 20:00 | 54.08230 | -4.63165 | 37 ft | 57 kts | 257° |
| 2026-04-26 20:00 | 54.08181 | -4.63563 | 39 ft | 28 kts | 258° |
| 2026-04-26 20:01 | 54.08152 | -4.63849 | 42 ft | 15 kts | 281° |
| 2026-04-26 20:01 | 54.08228 | -4.63897 | 44 ft | 11 kts | 20° |
| 2026-04-26 20:01 | 54.08280 | -4.63781 | 42 ft | 15 kts | 60° |
| 2026-04-26 20:01 | 54.08330 | -4.63624 | 40 ft | 14 kts | 63° |
| 2026-04-26 20:02 | 54.08355 | -4.63463 | 38 ft | 15 kts | 77° |
| 2026-04-26 20:02 | 54.08399 | -4.63383 | 37 ft | 9 kts | 354° |
| 2026-04-26 20:02 | 54.08457 | -4.63380 | 37 ft | 8 kts | 29° |
| 2026-04-26 20:02 | 54.08490 | -4.63346 | 36 ft | 8 kts | 32° |
| 2026-04-26 20:03 | 54.08549 | -4.63298 | 36 ft | 6 kts | 43° |
| 2026-04-26 20:03 | 54.08557 | -4.63286 | 36 ft | 0 kts | 43° |
| 2026-04-26 20:03 | 54.08566 | -4.63270 | 36 ft | 0 kts | 43° |